Time,TemperatureF,DewpointF,PressureIn,WindDirection,WindDirectionDegrees,WindSpeedMPH,WindSpeedGustMPH,Humidity,HourlyPrecipIn,Conditions,Clouds,dailyrainin,SolarRadiationWatts/m^2,SoftwareType,DateUTC
2013-08-06 09:50:00,66.8,58.6,29.77,SSE,157,9.0,9.0,75,0.00,,,0.00,418,Wunderground v.1.15,2013-08-06 15:50:00,
2013-08-06 09:55:00,66.8,59.0,29.77,SSE,151,8.0,13.0,76,0.00,,,0.00,960,Wunderground v.1.15,2013-08-06 15:55:00,
2013-08-06 10:00:00,66.7,58.1,29.76,South,184,7.0,7.0,74,0.00,,,0.00,459,Wunderground v.1.15,2013-08-06 16:00:00,
2013-08-06 10:05:00,66.9,58.3,29.76,ENE,78,7.0,9.0,74,0.00,,,0.00,406,Wunderground v.1.15,2013-08-06 16:05:00,
2013-08-06 10:10:00,66.9,57.6,29.76,SE,138,7.0,13.0,72,0.00,,,0.00,466,Wunderground v.1.15,2013-08-06 16:10:00,
2013-08-06 10:15:00,67.3,58.0,29.75,SSE,147,8.0,13.0,72,0.00,,,0.00,1035,Wunderground v.1.15,2013-08-06 16:15:00,
2013-08-06 10:20:00,68.3,57.3,29.74,SSE,161,8.0,13.0,68,0.00,,,0.00,912,Wunderground v.1.15,2013-08-06 16:20:00,
2013-08-06 10:25:00,68.4,57.4,29.75,ESE,106,9.0,13.0,68,0.00,,,0.00,701,Wunderground v.1.15,2013-08-06 16:25:00,
2013-08-06 10:30:00,68.5,58.7,29.76,ENE,65,8.0,8.0,71,0.00,,,0.00,990,Wunderground v.1.15,2013-08-06 16:30:00,
2013-08-06 10:35:00,68.8,58.6,29.76,WNW,298,6.0,13.0,70,0.00,,,0.00,1014,Wunderground v.1.15,2013-08-06 16:35:00,
2013-08-06 10:40:00,69.2,58.6,29.75,NE,40,5.0,13.0,69,0.00,,,0.00,1000,Wunderground v.1.15,2013-08-06 16:40:00,
2013-08-06 10:45:00,69.3,59.1,29.75,NNE,31,4.0,13.0,70,0.00,,,0.00,1004,Wunderground v.1.15,2013-08-06 16:45:00,
2013-08-06 10:50:00,69.4,59.2,29.75,South,175,5.0,5.0,70,0.00,,,0.00,986,Wunderground v.1.15,2013-08-06 16:50:00,
2013-08-06 11:00:00,68.8,59.0,29.75,NNE,28,8.0,8.0,71,0.00,,,0.00,1121,Wunderground v.1.15,2013-08-06 17:00:00,
2013-08-06 11:10:00,69.3,59.1,29.75,SE,136,4.0,4.0,70,0.00,,,0.00,988,Wunderground v.1.15,2013-08-06 17:10:00,
2013-08-06 11:15:00,69.3,59.1,29.74,WNW,289,6.0,10.0,70,0.00,,,0.00,993,Wunderground v.1.15,2013-08-06 17:15:00,
2013-08-06 11:20:00,69.3,59.1,29.75,NW,325,6.0,9.0,70,0.00,,,0.00,1074,Wunderground v.1.15,2013-08-06 17:20:00,
2013-08-06 11:25:00,69.0,58.4,29.75,SSE,149,8.0,9.0,69,0.00,,,0.00,1090,Wunderground v.1.15,2013-08-06 17:25:00,
2013-08-06 11:30:00,69.3,59.1,29.75,West,263,6.0,6.0,70,0.00,,,0.00,1113,Wunderground v.1.15,2013-08-06 17:30:00,
2013-08-06 11:35:00,70.2,58.7,29.74,SE,125,5.0,18.0,67,0.00,,,0.00,1190,Wunderground v.1.15,2013-08-06 17:35:00,
2013-08-06 11:40:00,71.0,59.5,29.74,South,182,6.0,6.0,67,0.00,,,0.00,1206,Wunderground v.1.15,2013-08-06 17:40:00,
2013-08-06 11:45:00,71.7,61.0,29.74,East,88,5.0,6.0,69,0.00,,,0.00,1083,Wunderground v.1.15,2013-08-06 17:45:00,
2013-08-06 11:50:00,72.1,60.1,29.74,NE,42,3.0,6.0,66,0.00,,,0.00,1241,Wunderground v.1.15,2013-08-06 17:50:00,
2013-08-06 13:00:00,71.8,59.4,29.72,NNE,17,3.0,5.0,65,0.00,,,0.00,1137,Wunderground v.1.15,2013-08-06 19:00:00,
2013-08-06 13:05:00,71.7,57.5,29.72,NE,48,3.0,10.0,61,0.00,,,0.00,369,Wunderground v.1.15,2013-08-06 19:05:00,
2013-08-06 13:10:00,71.2,58.4,29.73,NNE,19,4.0,5.0,64,0.00,,,0.00,765,Wunderground v.1.15,2013-08-06 19:10:00,
2013-08-06 13:15:00,70.2,57.4,29.73,NNE,23,7.0,7.0,64,0.00,,,0.00,320,Wunderground v.1.15,2013-08-06 19:15:00,
2013-08-06 13:20:00,69.5,57.2,29.73,NNE,33,9.0,9.0,65,0.00,,,0.00,320,Wunderground v.1.15,2013-08-06 19:20:00,
2013-08-06 13:25:00,69.8,57.9,29.73,ENE,65,7.0,9.0,66,0.00,,,0.00,455,Wunderground v.1.15,2013-08-06 19:25:00,
2013-08-06 13:30:00,69.6,58.2,29.73,North,5,7.0,7.0,67,0.00,,,0.00,352,Wunderground v.1.15,2013-08-06 19:30:00,
2013-08-06 13:35:00,69.5,58.5,29.73,NE,45,6.0,27.0,68,0.00,,,0.00,916,Wunderground v.1.15,2013-08-06 19:35:00,
2013-08-06 13:40:00,70.2,56.6,29.72,SSE,153,3.0,27.0,62,0.00,,,0.00,877,Wunderground v.1.15,2013-08-06 19:40:00,
2013-08-06 13:45:00,70.8,55.8,29.72,SE,129,4.0,27.0,59,0.00,,,0.00,849,Wunderground v.1.15,2013-08-06 19:45:00,
2013-08-06 13:50:00,70.7,57.5,29.72,NNE,16,6.0,27.0,63,0.00,,,0.00,765,Wunderground v.1.15,2013-08-06 19:50:00,
2013-08-06 13:55:00,70.7,58.8,29.72,ENE,74,8.0,27.0,66,0.00,,,0.00,846,Wunderground v.1.15,2013-08-06 19:55:00,
2013-08-06 14:00:00,70.7,59.6,29.72,NE,44,8.0,27.0,68,0.00,,,0.00,842,Wunderground v.1.15,2013-08-06 20:00:00,
2013-08-06 14:05:00,70.4,58.5,29.72,NNE,32,9.0,27.0,66,0.00,,,0.00,990,Wunderground v.1.15,2013-08-06 20:05:00,
2013-08-06 14:10:00,70.4,58.1,29.72,NE,41,9.0,27.0,65,0.00,,,0.00,986,Wunderground v.1.15,2013-08-06 20:10:00,
2013-08-06 14:15:00,70.6,58.7,29.72,NE,34,7.0,27.0,66,0.00,,,0.00,909,Wunderground v.1.15,2013-08-06 20:15:00,
2013-08-06 14:20:00,70.6,57.8,29.71,ESE,107,5.0,5.0,64,0.00,,,0.00,650,Wunderground v.1.15,2013-08-06 20:20:00,
2013-08-06 14:25:00,70.8,58.4,29.72,NE,45,5.0,27.0,65,0.00,,,0.00,831,Wunderground v.1.15,2013-08-06 20:25:00,
2013-08-06 14:30:00,70.9,57.7,29.71,NE,40,5.0,27.0,63,0.00,,,0.00,603,Wunderground v.1.15,2013-08-06 20:30:00,
2013-08-06 14:35:00,70.5,57.3,29.72,NE,51,5.0,27.0,63,0.00,,,0.00,545,Wunderground v.1.15,2013-08-06 20:35:00,
2013-08-06 14:40:00,70.2,57.4,29.71,ENE,67,5.0,5.0,64,0.00,,,0.00,425,Wunderground v.1.15,2013-08-06 20:40:00,
2013-08-06 14:45:00,69.7,57.0,29.71,SSE,150,5.0,27.0,64,0.00,,,0.00,494,Wunderground v.1.15,2013-08-06 20:45:00,
2013-08-06 14:50:00,69.4,57.1,29.72,East,83,4.0,4.0,65,0.00,,,0.00,501,Wunderground v.1.15,2013-08-06 20:50:00,
2013-08-06 14:55:00,69.2,57.4,29.72,ESE,105,3.0,27.0,66,0.00,,,0.00,540,Wunderground v.1.15,2013-08-06 20:55:00,
2013-08-06 15:05:00,69.0,57.6,29.72,NE,37,5.0,27.0,67,0.00,,,0.00,621,Wunderground v.1.15,2013-08-06 21:05:00,
2013-08-06 15:10:00,68.5,57.5,29.72,NE,42,8.0,27.0,68,0.00,,,0.00,457,Wunderground v.1.15,2013-08-06 21:10:00,
2013-08-06 15:15:00,67.9,56.5,29.72,SSE,150,7.0,27.0,67,0.00,,,0.00,334,Wunderground v.1.15,2013-08-06 21:15:00,
2013-08-06 15:20:00,67.6,57.5,29.72,ENE,71,6.0,6.0,70,0.00,,,0.00,352,Wunderground v.1.15,2013-08-06 21:20:00,
2013-08-06 15:25:00,67.9,57.8,29.72,NE,46,4.0,27.0,70,0.00,,,0.00,536,Wunderground v.1.15,2013-08-06 21:25:00,
2013-08-06 15:30:00,68.1,57.5,29.72,ENE,66,2.0,27.0,69,0.00,,,0.00,262,Wunderground v.1.15,2013-08-06 21:30:00,
2013-08-06 15:35:00,67.8,57.7,29.72,South,171,2.0,27.0,70,0.00,,,0.00,267,Wunderground v.1.15,2013-08-06 21:35:00,
2013-08-06 15:40:00,67.7,58.0,29.72,ENE,57,2.0,27.0,71,0.00,,,0.00,315,Wunderground v.1.15,2013-08-06 21:40:00,
2013-08-06 15:45:00,67.4,57.7,29.72,ESE,115,2.0,27.0,71,0.00,,,0.00,200,Wunderground v.1.15,2013-08-06 21:45:00,
2013-08-06 15:50:00,66.9,57.2,29.72,SSE,156,3.0,3.0,71,0.00,,,0.00,155,Wunderground v.1.15,2013-08-06 21:50:00,
2013-08-06 15:55:00,66.6,57.3,29.72,East,79,2.0,27.0,72,0.00,,,0.00,144,Wunderground v.1.15,2013-08-06 21:55:00,
2013-08-06 16:00:00,66.4,57.9,29.72,NNE,30,2.0,27.0,74,0.00,,,0.00,139,Wunderground v.1.15,2013-08-06 22:00:00,
2013-08-06 16:05:00,65.9,57.4,29.72,NE,41,3.0,27.0,74,0.00,,,0.00,132,Wunderground v.1.15,2013-08-06 22:05:00,
2013-08-06 16:10:00,65.6,57.1,29.72,SSW,196,4.0,4.0,74,0.00,,,0.00,128,Wunderground v.1.15,2013-08-06 22:10:00,
2013-08-06 16:15:00,65.5,57.4,29.72,NNE,32,3.0,7.0,75,0.00,,,0.00,114,Wunderground v.1.15,2013-08-06 22:15:00,
2013-08-06 16:20:00,65.2,57.1,29.72,NNW,344,4.0,4.0,75,0.00,,,0.00,97,Wunderground v.1.15,2013-08-06 22:20:00,
2013-08-06 16:25:00,65.0,56.9,29.72,ESE,120,4.0,5.0,75,0.00,,,0.00,83,Wunderground v.1.15,2013-08-06 22:25:00,
2013-08-06 16:30:00,64.8,57.1,29.72,ENE,57,4.0,4.0,76,0.00,,,0.00,81,Wunderground v.1.15,2013-08-06 22:30:00,
2013-08-06 16:35:00,64.7,57.3,29.72,NNE,17,5.0,5.0,77,0.00,,,0.00,74,Wunderground v.1.15,2013-08-06 22:35:00,
2013-08-06 16:40:00,64.5,57.1,29.72,NNE,32,5.0,5.0,77,0.00,,,0.00,67,Wunderground v.1.15,2013-08-06 22:40:00,
2013-08-06 16:45:00,64.4,57.0,29.71,NE,51,4.0,27.0,77,0.00,,,0.00,63,Wunderground v.1.15,2013-08-06 22:45:00,
2013-08-06 16:50:00,64.3,57.3,29.72,NNE,31,2.0,2.0,78,0.00,,,0.00,56,Wunderground v.1.15,2013-08-06 22:50:00,
2013-08-06 16:55:00,64.2,57.2,29.72,NNE,31,1.0,27.0,78,0.00,,,0.00,46,Wunderground v.1.15,2013-08-06 22:55:00,
2013-08-06 17:00:00,64.2,57.5,29.72,NNE,31,1.0,1.0,79,0.00,,,0.00,39,Wunderground v.1.15,2013-08-06 23:00:00,
2013-08-06 17:05:00,64.1,57.1,29.72,NNE,31,0.0,27.0,78,0.00,,,0.00,33,Wunderground v.1.15,2013-08-06 23:05:00,
2013-08-06 17:10:00,64.0,57.4,29.72,NNE,27,1.0,27.0,79,0.00,,,0.00,25,Wunderground v.1.15,2013-08-06 23:10:00,